Stratford, Wisconsin
Current Conditions -  °F | °C
As of 8:54 PM on Friday 31 Oct 2014 (Local Time) from KMFI Reporting Station
Broken Clouds Broken Clouds  
Wind Chill: 24°   Ceiling: 3700
Heat Index: 31°   Visibility: 10mi
Dew Point: 20°   Wind: 7mph
Humidity: 64%   Direction: 360°N
Pressure: 30.46"   Gusts: NA
Location:  44.8°N, 90.08°W
Report Text: KMFI 010154Z AUTO 36006KT 10SM BKN037 M01/M07 A3046 RMK AO2 SLP330 T10061067
Loading
Personal Weather Stations






























Interactive Weather Map
Tropical Storm Tracking
New forecast layout! Learn more

10-Day Weather Forecast

Advertisements
Track Severe Weather on mobile